Time;durP1;ratioP1;P1;durP2;ratioP2;P2;SDS_P1;SDS_P2;PMS_P1;PMS_P2;Temp;Humidity;BMP_temperature;BMP_pressure;BME280_temperature;BME280_humidity;BME280_pressure;Samples;Min_cycle;Max_cycle;Signal;HPM_P1;HPM_P2
2020/12/15 00:02:10;;;;;;;4.23;2.97;;;8.50;99.90;;;;;;5054774;28;20183;-66
2020/12/15 00:04:35;;;;;;;5.70;2.87;;;8.50;99.90;;;;;;5058562;28;20209;-66
2020/12/15 00:07:02;;;;;;;3.10;2.80;;;8.50;99.90;;;;;;5074380;28;20174;-65
2020/12/15 00:09:27;;;;;;;6.47;2.83;;;8.50;99.90;;;;;;5058218;28;20179;-66
2020/12/15 00:11:53;;;;;;;3.77;3.13;;;8.50;99.90;;;;;;5065013;28;20181;-66
2020/12/15 00:14:19;;;;;;;5.17;3.17;;;8.40;99.90;;;;;;5074312;28;20216;-65
2020/12/15 00:16:44;;;;;;;4.17;3.37;;;8.40;99.90;;;;;;5072365;28;20182;-66
2020/12/15 00:19:11;;;;;;;4.53;3.97;;;8.20;99.90;;;;;;5055260;28;20269;-66
2020/12/15 00:21:41;;;;;;;4.37;3.30;;;8.20;99.90;;;;;;5070638;28;20259;-66
2020/12/15 00:24:07;;;;;;;3.60;3.30;;;8.10;99.90;;;;;;5074188;28;20193;-65
2020/12/15 00:26:33;;;;;;;7.90;3.47;;;8.00;99.90;;;;;;5057350;28;20167;-66
2020/12/15 00:28:58;;;;;;;5.00;3.80;;;8.10;99.90;;;;;;5062067;28;20174;-66
2020/12/15 00:31:24;;;;;;;3.57;3.20;;;8.10;99.90;;;;;;5066222;28;20539;-66
2020/12/15 00:33:49;;;;;;;4.70;3.47;;;8.10;99.90;;;;;;5065250;28;20244;-66
2020/12/15 00:36:19;;;;;;;6.47;3.50;;;8.10;99.90;;;;;;5053845;28;20167;-66
2020/12/15 00:38:45;;;;;;;3.87;3.37;;;8.10;99.90;;;;;;5067136;28;20188;-66
2020/12/15 00:41:11;;;;;;;5.40;3.60;;;8.00;99.90;;;;;;5061893;28;20289;-66
2020/12/15 00:43:37;;;;;;;4.90;3.27;;;8.00;99.90;;;;;;5068340;28;20252;-66
2020/12/15 00:46:03;;;;;;;3.93;3.50;;;8.00;99.90;;;;;;5057000;28;20175;-66
2020/12/15 00:48:28;;;;;;;7.57;3.80;;;7.90;99.90;;;;;;5053596;28;20163;-66
2020/12/15 00:50:54;;;;;;;4.97;3.40;;;7.90;99.90;;;;;;5064074;28;20175;-66
2020/12/15 00:53:19;;;;;;;5.47;3.40;;;7.90;99.90;;;;;;5073854;28;20221;-66
2020/12/15 00:55:45;;;;;;;3.93;3.43;;;7.90;99.90;;;;;;5063382;28;20237;-66
2020/12/15 00:58:10;;;;;;;6.67;3.77;;;7.90;99.90;;;;;;5053607;28;20185;-66
2020/12/15 01:00:36;;;;;;;7.07;4.07;;;7.90;99.90;;;;;;5061440;28;20558;-66
2020/12/15 01:03:02;;;;;;;7.83;4.00;;;7.80;99.90;;;;;;5073258;28;20236;-66
2020/12/15 01:05:27;;;;;;;4.40;3.50;;;7.70;99.90;;;;;;5065670;28;20183;-66
2020/12/15 01:07:54;;;;;;;5.57;4.17;;;7.70;99.90;;;;;;5053346;28;20171;-66
2020/12/15 01:10:21;;;;;;;4.40;3.63;;;7.60;99.90;;;;;;5059066;28;20186;-66
2020/12/15 01:12:47;;;;;;;6.37;3.83;;;7.60;99.90;;;;;;5072912;28;20225;-66
2020/12/15 01:15:12;;;;;;;6.47;4.07;;;7.60;99.90;;;;;;5053646;28;20241;-66
2020/12/15 01:17:38;;;;;;;4.93;3.90;;;7.60;99.90;;;;;;5052959;28;20210;-66
2020/12/15 01:20:03;;;;;;;5.97;4.07;;;7.60;99.90;;;;;;5064892;28;20252;-65
2020/12/15 01:22:29;;;;;;;5.40;4.27;;;7.60;99.90;;;;;;5052897;28;20209;-66
2020/12/15 01:24:54;;;;;;;5.37;4.10;;;7.60;99.90;;;;;;5066321;28;20178;-66
2020/12/15 01:27:20;;;;;;;6.43;4.10;;;7.60;99.90;;;;;;5072806;28;20241;-66
2020/12/15 01:29:46;;;;;;;7.87;4.20;;;7.60;99.90;;;;;;5060838;28;20183;-66
2020/12/15 01:32:11;;;;;;;5.23;4.13;;;7.50;99.90;;;;;;5057544;28;20261;-66
2020/12/15 01:34:37;;;;;;;5.20;4.03;;;7.50;99.90;;;;;;5060183;28;20185;-66
2020/12/15 01:37:04;;;;;;;6.37;5.20;;;7.50;99.90;;;;;;5057450;28;20671;-66
2020/12/15 01:39:30;;;;;;;7.63;4.30;;;7.60;99.90;;;;;;5052561;28;20201;-66
2020/12/15 01:41:56;;;;;;;4.80;4.30;;;7.50;99.90;;;;;;5066754;28;20170;-66
2020/12/15 01:44:21;;;;;;;4.90;4.00;;;7.50;99.90;;;;;;5072541;28;20254;-65
2020/12/15 01:46:47;;;;;;;8.33;4.70;;;7.50;99.90;;;;;;5054030;28;20277;-66
2020/12/15 01:49:15;;;;;;;4.93;4.43;;;7.50;99.90;;;;;;5052567;28;20540;-65
2020/12/15 01:51:40;;;;;;;6.10;4.80;;;7.50;99.90;;;;;;5069297;28;20190;-66
2020/12/15 01:54:06;;;;;;;5.53;4.33;;;7.40;99.90;;;;;;5072261;28;20189;-64
2020/12/15 01:56:32;;;;;;;5.80;4.77;;;7.40;99.90;;;;;;5055919;28;20178;-65
2020/12/15 01:59:02;;;;;;;6.33;4.93;;;7.40;99.90;;;;;;5052357;28;20197;-65
2020/12/15 02:01:28;;;;;;;7.97;4.90;;;7.40;99.90;;;;;;5056956;28;20198;-64
2020/12/15 02:03:54;;;;;;;6.43;4.87;;;7.40;99.90;;;;;;5052220;28;20207;-64
2020/12/15 02:06:21;;;;;;;6.53;4.57;;;7.40;99.90;;;;;;5066415;28;20182;-65
2020/12/15 02:08:47;;;;;;;7.33;4.27;;;7.40;99.90;;;;;;5056760;28;20179;-66
2020/12/15 02:11:13;;;;;;;6.37;4.80;;;7.40;99.90;;;;;;5061493;28;20178;-65
2020/12/15 02:13:39;;;;;;;6.93;4.87;;;7.40;99.90;;;;;;5071994;28;20552;-65
2020/12/15 02:16:12;;;;;;;6.50;5.00;;;7.40;99.90;;;;;;5057005;28;20183;-66
2020/12/15 02:18:39;;;;;;;5.90;5.07;;;7.30;99.90;;;;;;5051998;28;20574;-65
2020/12/15 02:21:05;;;;;;;6.47;5.20;;;7.30;99.90;;;;;;5065541;28;20289;-65
2020/12/15 02:23:31;;;;;;;7.13;5.00;;;7.30;99.90;;;;;;5071775;28;20264;-65
2020/12/15 02:25:57;;;;;;;8.27;5.43;;;7.30;99.90;;;;;;5058845;28;20265;-66
2020/12/15 02:28:23;;;;;;;6.97;5.47;;;7.30;99.90;;;;;;5053085;28;20197;-66
2020/12/15 02:30:49;;;;;;;8.07;5.67;;;7.30;99.90;;;;;;5067075;28;20187;-65
2020/12/15 02:33:14;;;;;;;8.07;5.30;;;7.30;99.90;;;;;;5053414;28;20636;-65
2020/12/15 02:35:40;;;;;;;6.17;5.17;;;7.30;99.90;;;;;;5071447;28;20186;-65
2020/12/15 02:38:06;;;;;;;8.27;4.93;;;7.30;99.90;;;;;;5071222;28;20296;-66
2020/12/15 02:40:31;;;;;;;6.80;5.20;;;7.30;99.90;;;;;;5064749;28;20199;-65
2020/12/15 02:42:57;;;;;;;7.33;4.60;;;7.30;99.90;;;;;;5051623;28;20218;-66
2020/12/15 02:45:23;;;;;;;7.67;5.77;;;7.30;99.90;;;;;;5059451;28;20253;-66
2020/12/15 02:47:48;;;;;;;8.07;5.77;;;7.30;99.90;;;;;;5071561;28;20252;-65
2020/12/15 02:50:21;;;;;;;7.23;5.40;;;7.30;99.90;;;;;;5054156;28;20183;-65
2020/12/15 02:52:47;;;;;;;7.70;5.53;;;7.40;99.90;;;;;;5051723;28;20187;-65
2020/12/15 02:55:13;;;;;;;8.27;5.10;;;7.40;99.90;;;;;;5061919;28;20179;-66
2020/12/15 02:57:39;;;;;;;8.17;5.23;;;7.40;99.90;;;;;;5051423;28;20595;-65
2020/12/15 03:00:07;;;;;;;11.17;5.80;;;7.40;99.90;;;;;;5051589;28;20234;-66
2020/12/15 03:02:33;;;;;;;7.33;5.27;;;7.40;99.90;;;;;;5070530;28;20283;-66
2020/12/15 03:04:59;;;;;;;6.40;5.70;;;7.40;99.90;;;;;;5058211;28;20179;-65
2020/12/15 03:07:25;;;;;;;6.70;5.30;;;7.50;99.90;;;;;;5051320;28;20225;-65
2020/12/15 03:09:50;;;;;;;9.60;6.00;;;7.40;99.90;;;;;;5052401;28;20178;-65
2020/12/15 03:12:18;;;;;;;8.97;6.00;;;7.50;99.90;;;;;;5065225;28;20662;-66
2020/12/15 03:14:43;;;;;;;10.27;6.03;;;7.50;99.90;;;;;;5058147;28;20183;-66
2020/12/15 03:17:09;;;;;;;8.33;5.97;;;7.40;99.90;;;;;;5051234;28;20175;-66
2020/12/15 03:19:35;;;;;;;7.33;6.30;;;7.40;99.90;;;;;;5061803;28;20224;-66
2020/12/15 03:22:00;;;;;;;9.37;6.03;;;7.40;99.90;;;;;;5070959;28;20226;-66
2020/12/15 03:24:26;;;;;;;7.20;6.33;;;7.40;99.90;;;;;;5061262;28;20194;-66
2020/12/15 03:26:51;;;;;;;7.17;5.53;;;7.40;99.90;;;;;;5066841;28;20175;-65
2020/12/15 03:29:17;;;;;;;8.43;5.97;;;7.40;99.90;;;;;;5051086;28;20261;-66
2020/12/15 03:31:42;;;;;;;11.13;6.57;;;7.40;99.90;;;;;;5061201;28;20197;-65
2020/12/15 03:34:08;;;;;;;8.17;6.03;;;7.40;99.90;;;;;;5071056;28;20537;-66
2020/12/15 03:36:33;;;;;;;11.40;6.40;;;7.40;99.90;;;;;;5062193;28;20190;-66
2020/12/15 03:38:59;;;;;;;7.63;5.67;;;7.40;99.90;;;;;;5055611;28;20171;-65
2020/12/15 03:41:25;;;;;;;10.83;6.20;;;7.40;99.90;;;;;;5057337;28;20214;-65
2020/12/15 03:43:50;;;;;;;8.77;6.10;;;7.40;99.90;;;;;;5073603;28;20197;-65
2020/12/15 03:46:16;;;;;;;8.60;6.20;;;7.40;99.90;;;;;;5054993;28;20258;-65
2020/12/15 03:48:41;;;;;;;7.80;5.87;;;7.40;99.90;;;;;;5054836;28;20175;-65
2020/12/15 03:51:07;;;;;;;7.23;6.07;;;7.40;99.90;;;;;;5071302;28;20220;-65
2020/12/15 03:53:33;;;;;;;9.67;7.03;;;7.40;99.90;;;;;;5074655;28;20190;-65
2020/12/15 03:55:58;;;;;;;7.77;6.87;;;7.40;99.90;;;;;;5069330;28;20273;-65
2020/12/15 03:58:24;;;;;;;8.23;6.27;;;7.40;99.90;;;;;;5074493;28;20243;-65
2020/12/15 04:00:49;;;;;;;9.47;6.47;;;7.40;99.90;;;;;;5064721;28;20225;-65
2020/12/15 04:03:15;;;;;;;7.33;6.00;;;7.40;99.90;;;;;;5074420;28;20255;-65
2020/12/15 04:05:40;;;;;;;8.93;6.50;;;7.30;99.90;;;;;;5062184;28;20782;-66
2020/12/15 04:08:06;;;;;;;12.13;6.70;;;7.40;99.90;;;;;;5054448;28;20245;-65
2020/12/15 04:10:32;;;;;;;9.33;6.20;;;7.40;99.90;;;;;;5064180;28;20236;-66
2020/12/15 04:12:58;;;;;;;10.57;6.73;;;7.40;99.90;;;;;;5059358;28;20704;-65
2020/12/15 04:15:24;;;;;;;10.17;6.70;;;7.40;99.90;;;;;;5062303;28;20198;-65
2020/12/15 04:17:50;;;;;;;12.90;6.83;;;7.40;99.90;;;;;;5069012;28;20217;-65
2020/12/15 04:20:16;;;;;;;7.43;6.60;;;7.40;99.90;;;;;;5053838;28;20613;-65
2020/12/15 04:22:42;;;;;;;9.50;6.73;;;7.40;99.90;;;;;;5057441;28;20194;-65
2020/12/15 04:25:07;;;;;;;10.30;6.40;;;7.40;99.90;;;;;;5067725;28;20189;-65
2020/12/15 04:27:33;;;;;;;9.00;5.77;;;7.40;99.90;;;;;;5072264;28;20178;-65
2020/12/15 04:29:59;;;;;;;8.70;6.73;;;7.40;99.90;;;;;;5068649;28;20175;-65
2020/12/15 04:32:24;;;;;;;9.07;6.80;;;7.30;99.90;;;;;;5069966;28;20174;-65
2020/12/15 04:34:50;;;;;;;9.60;6.33;;;7.30;99.90;;;;;;5066518;28;20237;-65
2020/12/15 04:37:17;;;;;;;12.27;6.27;;;7.40;99.90;;;;;;5053941;28;20171;-65
2020/12/15 04:39:42;;;;;;;9.13;6.67;;;7.40;99.90;;;;;;5055020;28;20197;-65
2020/12/15 04:42:08;;;;;;;8.57;6.90;;;7.30;99.90;;;;;;5065517;28;20174;-65
2020/12/15 04:44:35;;;;;;;10.57;7.70;;;7.40;99.90;;;;;;5068286;28;20175;-65
2020/12/15 04:47:12;;;;;;;9.53;6.80;;;7.40;99.90;;;;;;5053810;28;20235;-66
2020/12/15 04:50:03;;;;;;;7.63;6.23;;;7.40;99.90;;;;;;5056784;28;20565;-66
2020/12/15 04:52:56;;;;;;;9.27;6.70;;;7.40;99.90;;;;;;5060495;28;20717;-66
2020/12/15 04:55:24;;;;;;;9.97;7.00;;;7.40;99.90;;;;;;5053665;28;20170;-65
2020/12/15 04:57:51;;;;;;;9.43;7.03;;;7.40;99.90;;;;;;5058228;28;20639;-65
2020/12/15 05:00:17;;;;;;;8.93;7.50;;;7.40;99.90;;;;;;5060907;28;20500;-65
2020/12/15 05:05:11;;;;;;;9.63;7.07;;;7.40;99.90;;;;;;5072382;28;20206;-63
2020/12/15 05:07:42;;;;;;;8.47;7.10;;;7.50;99.90;;;;;;5073365;28;20181;-63
2020/12/15 05:10:10;;;;;;;8.33;6.40;;;7.50;99.90;;;;;;5072800;28;20174;-64
2020/12/15 05:12:35;;;;;;;11.17;8.10;;;7.50;99.90;;;;;;5072647;28;20178;-62
2020/12/15 05:15:07;;;;;;;12.83;8.10;;;7.60;99.90;;;;;;5073153;28;20504;-62
2020/12/15 05:17:32;;;;;;;9.30;6.83;;;7.60;99.90;;;;;;5073157;28;20185;-63
2020/12/15 05:19:59;;;;;;;10.67;7.57;;;7.60;99.90;;;;;;5071055;28;20567;-62
2020/12/15 05:22:25;;;;;;;10.60;7.87;;;7.60;99.90;;;;;;5072568;28;20177;-62
2020/12/15 05:24:51;;;;;;;11.43;7.73;;;7.60;99.90;;;;;;5072876;28;20261;-64
2020/12/15 05:27:18;;;;;;;9.83;7.37;;;7.60;99.90;;;;;;5072828;28;20170;-63
2020/12/15 05:29:43;;;;;;;10.13;7.90;;;7.60;99.90;;;;;;5072830;28;20217;-63
2020/12/15 05:32:09;;;;;;;11.07;7.50;;;7.60;99.90;;;;;;5071070;28;20643;-63
2020/12/15 05:34:36;;;;;;;10.30;7.63;;;7.70;99.90;;;;;;5072357;28;20197;-63
2020/12/15 05:37:02;;;;;;;10.60;8.13;;;7.70;99.90;;;;;;5072808;28;20257;-61
2020/12/15 05:39:29;;;;;;;9.33;7.57;;;7.70;99.90;;;;;;5072460;28;20181;-63
2020/12/15 05:42:09;;;;;;;12.40;8.50;;;7.70;99.90;;;;;;5072095;28;20572;-64
2020/12/15 05:44:37;;;;;;;14.67;7.83;;;7.70;99.90;;;;;;5052531;28;20198;-63
2020/12/15 05:47:05;;;;;;;8.77;7.87;;;7.70;99.90;;;;;;5054066;28;20533;-64
2020/12/15 05:49:33;;;;;;;10.57;7.13;;;7.80;99.90;;;;;;5072354;28;20587;-64
2020/12/15 05:51:59;;;;;;;10.20;7.77;;;7.80;99.90;;;;;;5071489;28;20178;-65
2020/12/15 05:54:26;;;;;;;11.27;8.07;;;7.70;99.90;;;;;;5072220;28;20218;-62
2020/12/15 05:57:06;;;;;;;10.73;7.87;;;7.80;99.90;;;;;;5072178;28;20703;-61
2020/12/15 05:59:32;;;;;;;12.30;7.97;;;7.80;99.90;;;;;;5072047;28;20257;-64
2020/12/15 06:02:09;;;;;;;12.00;8.10;;;7.80;99.90;;;;;;5071401;28;20174;-63
2020/12/15 06:04:38;;;;;;;11.33;7.47;;;7.90;99.90;;;;;;5071780;28;20209;-64
2020/12/15 06:07:08;;;;;;;12.27;8.30;;;7.90;99.90;;;;;;5072123;28;20193;-63
2020/12/15 06:09:34;;;;;;;11.47;8.13;;;7.90;99.90;;;;;;5071562;28;20178;-63
2020/12/15 06:12:01;;;;;;;13.23;8.13;;;7.90;99.90;;;;;;5071293;28;20178;-62
2020/12/15 06:14:27;;;;;;;14.30;9.07;;;7.90;99.90;;;;;;5071608;28;20229;-64
2020/12/15 06:16:54;;;;;;;11.27;8.20;;;7.90;99.90;;;;;;5071754;28;20171;-63
2020/12/15 06:19:22;;;;;;;11.70;7.93;;;7.90;99.90;;;;;;5071771;28;20178;-64
2020/12/15 06:21:59;;;;;;;13.47;8.13;;;7.90;99.90;;;;;;5071223;28;20342;-64
2020/12/15 06:24:27;;;;;;;11.93;7.97;;;7.90;99.90;;;;;;5072080;28;20185;-64
2020/12/15 06:27:00;;;;;;;11.07;8.80;;;7.90;99.90;;;;;;5070433;28;20170;-64
2020/12/15 06:29:30;;;;;;;11.03;8.00;;;8.00;99.90;;;;;;5071386;28;20178;-64
2020/12/15 06:31:56;;;;;;;12.13;8.53;;;8.00;99.90;;;;;;5071237;28;20182;-61
2020/12/15 06:34:26;;;;;;;13.03;8.63;;;8.00;99.90;;;;;;5071229;28;20293;-61
2020/12/15 06:36:55;;;;;;;9.00;7.87;;;8.00;99.90;;;;;;5071594;28;20174;-64
2020/12/15 06:39:24;;;;;;;12.10;8.03;;;8.00;99.90;;;;;;5071469;28;20174;-63
2020/12/15 06:42:03;;;;;;;10.97;8.67;;;8.00;99.90;;;;;;5071009;28;20208;-64
2020/12/15 06:44:33;;;;;;;13.40;9.27;;;8.00;99.90;;;;;;5071127;28;20213;-64
2020/12/15 06:47:01;;;;;;;11.10;8.57;;;8.10;99.90;;;;;;5071168;28;20169;-64
2020/12/15 06:49:32;;;;;;;14.67;8.53;;;8.10;99.90;;;;;;5070333;28;20257;-64
2020/12/15 06:51:59;;;;;;;11.20;8.50;;;8.10;99.90;;;;;;5070311;28;20173;-59
2020/12/15 06:54:29;;;;;;;13.13;9.53;;;8.10;99.90;;;;;;5071316;28;20186;-63
2020/12/15 06:57:03;;;;;;;13.07;8.97;;;8.10;99.90;;;;;;5071239;28;20182;-64
2020/12/15 06:59:39;;;;;;;12.83;9.63;;;8.10;99.90;;;;;;5071174;28;20245;-64
2020/12/15 07:02:32;;;;;;;13.60;9.37;;;8.10;99.90;;;;;;5070782;28;20185;-64
2020/12/15 07:05:30;;;;;;;14.30;10.03;;;8.10;99.90;;;;;;5070145;28;20241;-63
2020/12/15 07:08:00;;;;;;;13.67;9.23;;;8.10;99.90;;;;;;5039371;28;20551;-62
2020/12/15 07:10:28;;;;;;;15.10;9.53;;;8.20;99.90;;;;;;5058308;28;20658;-64
2020/12/15 07:12:58;;;;;;;12.70;9.13;;;8.20;99.90;;;;;;5072597;28;20229;-63
2020/12/15 07:15:25;;;;;;;11.47;9.13;;;8.20;99.90;;;;;;5075404;28;20235;-65
2020/12/15 07:17:51;;;;;;;10.87;8.50;;;8.20;99.90;;;;;;5074003;28;20213;-63
2020/12/15 07:20:21;;;;;;;13.07;9.37;;;8.20;99.90;;;;;;5074903;28;20190;-65
2020/12/15 07:22:47;;;;;;;15.30;10.27;;;8.20;99.90;;;;;;5074833;28;20712;-64
2020/12/15 07:25:13;;;;;;;12.87;9.13;;;8.20;99.90;;;;;;5075214;28;20210;-62
2020/12/15 07:27:40;;;;;;;12.80;9.70;;;8.20;99.90;;;;;;5073556;28;20186;-64
2020/12/15 07:30:26;;;;;;;15.93;10.07;;;8.20;99.90;;;;;;5054896;28;20174;-65
2020/12/15 07:32:52;;;;;;;11.90;9.87;;;8.20;99.90;;;;;;5054922;28;20191;-63
2020/12/15 07:35:25;;;;;;;14.13;10.20;;;8.20;99.90;;;;;;5055276;28;20179;-63
2020/12/15 07:37:56;;;;;;;15.87;10.63;;;8.20;99.90;;;;;;5075083;28;20178;-61
2020/12/15 07:40:22;;;;;;;16.33;10.27;;;8.20;99.90;;;;;;5074456;28;20194;-64
2020/12/15 07:42:55;;;;;;;17.97;10.73;;;8.20;99.90;;;;;;5074638;28;20205;-65
2020/12/15 07:45:23;;;;;;;13.90;9.87;;;8.20;99.90;;;;;;5074645;28;20177;-64
2020/12/15 07:47:50;;;;;;;14.23;9.40;;;8.30;99.90;;;;;;5074299;28;20175;-62
2020/12/15 07:50:16;;;;;;;14.23;11.43;;;8.20;99.90;;;;;;5071851;28;20581;-62
2020/12/15 07:52:42;;;;;;;15.97;10.13;;;8.30;99.90;;;;;;5073561;28;20655;-64
2020/12/15 07:55:15;;;;;;;14.63;11.03;;;8.30;99.90;;;;;;5074238;28;20262;-64
2020/12/15 07:57:42;;;;;;;18.07;11.10;;;8.30;99.90;;;;;;5074528;28;20178;-64
2020/12/15 08:00:07;;;;;;;16.80;11.00;;;8.30;99.90;;;;;;5074247;28;20190;-63
2020/12/15 08:02:33;;;;;;;16.73;10.33;;;8.30;99.90;;;;;;5073946;28;21107;-64
2020/12/15 08:05:16;;;;;;;18.13;11.43;;;8.30;99.90;;;;;;5074560;28;20190;-64
2020/12/15 08:07:46;;;;;;;15.23;10.87;;;8.40;99.90;;;;;;5073577;28;20227;-64
2020/12/15 08:10:12;;;;;;;16.47;10.63;;;8.40;99.90;;;;;;5064926;28;20201;-62
2020/12/15 08:12:40;;;;;;;15.17;10.70;;;8.40;99.90;;;;;;5073593;28;20510;-62
2020/12/15 08:15:06;;;;;;;16.70;11.07;;;8.50;99.90;;;;;;5073713;28;20185;-64
2020/12/15 08:17:32;;;;;;;14.67;11.10;;;8.50;99.90;;;;;;5073764;28;20174;-64
2020/12/15 08:20:07;;;;;;;18.13;10.73;;;8.60;99.90;;;;;;5073664;28;20236;-64
2020/12/15 08:22:41;;;;;;;13.70;10.47;;;8.60;99.90;;;;;;5066405;28;20204;-61
2020/12/15 08:25:11;;;;;;;22.37;12.10;;;8.60;99.90;;;;;;5073804;28;20205;-60
2020/12/15 08:27:37;;;;;;;15.80;11.83;;;8.70;99.90;;;;;;5073821;28;20159;-64
2020/12/15 08:30:16;;;;;;;13.97;10.53;;;8.70;99.90;;;;;;5073175;28;20538;-62
2020/12/15 08:32:47;;;;;;;17.03;11.50;;;8.70;99.90;;;;;;5073666;28;20174;-64
2020/12/15 08:35:13;;;;;;;17.10;12.70;;;8.70;99.90;;;;;;5073999;28;20171;-62
2020/12/15 08:37:42;;;;;;;19.47;12.00;;;8.70;99.90;;;;;;5073603;28;20189;-62
2020/12/15 08:40:10;;;;;;;18.07;12.17;;;8.60;99.90;;;;;;5073375;28;20605;-62
2020/12/15 08:42:40;;;;;;;19.53;13.10;;;8.60;99.90;;;;;;5073179;28;20562;-64
2020/12/15 08:45:16;;;;;;;17.43;12.33;;;8.60;99.90;;;;;;5073390;28;20174;-64
2020/12/15 08:47:47;;;;;;;24.20;13.53;;;8.60;99.90;;;;;;5073805;28;20253;-64
2020/12/15 08:50:15;;;;;;;17.70;12.80;;;8.60;99.90;;;;;;5071884;28;20189;-63
2020/12/15 08:52:42;;;;;;;18.57;13.00;;;8.60;99.90;;;;;;5073213;28;20181;-61
2020/12/15 08:55:08;;;;;;;18.93;13.77;;;8.70;99.90;;;;;;5073287;28;20661;-63
2020/12/15 08:57:34;;;;;;;19.03;13.77;;;8.60;99.90;;;;;;5073629;28;20170;-64
2020/12/15 09:00:14;;;;;;;20.97;14.70;;;8.70;99.90;;;;;;5072845;28;20197;-63
2020/12/15 09:02:40;;;;;;;19.20;13.87;;;8.70;99.90;;;;;;5072890;28;20174;-64
2020/12/15 09:05:11;;;;;;;21.57;14.70;;;8.70;99.90;;;;;;5073089;28;20174;-63
2020/12/15 09:07:38;;;;;;;23.30;14.83;;;8.70;99.90;;;;;;5073080;28;20253;-63
2020/12/15 09:10:16;;;;;;;20.37;13.83;;;8.70;99.90;;;;;;5072658;28;20275;-63
2020/12/15 09:12:46;;;;;;;25.40;16.53;;;8.80;99.90;;;;;;5072664;28;20174;-63
2020/12/15 09:15:13;;;;;;;20.80;14.17;;;8.80;99.90;;;;;;5073290;28;20176;-64
2020/12/15 09:17:40;;;;;;;22.97;14.47;;;8.80;99.90;;;;;;5072785;28;20273;-61
2020/12/15 09:20:08;;;;;;;21.20;15.20;;;8.90;99.90;;;;;;5072943;28;20197;-63
2020/12/15 09:22:36;;;;;;;20.50;14.20;;;8.90;99.90;;;;;;5071116;28;20178;-63
2020/12/15 09:25:11;;;;;;;22.20;15.60;;;9.00;99.90;;;;;;5072942;28;20174;-64
2020/12/15 09:27:37;;;;;;;23.23;14.97;;;9.00;99.90;;;;;;5072491;28;20227;-64
2020/12/15 09:30:03;;;;;;;23.53;15.23;;;9.00;99.90;;;;;;5072461;28;20565;-64
2020/12/15 09:32:33;;;;;;;22.70;14.37;;;9.00;99.90;;;;;;5072346;28;20543;-64
2020/12/15 09:34:58;;;;;;;22.20;15.83;;;9.00;99.90;;;;;;5071991;28;20251;-63
2020/12/15 09:37:24;;;;;;;21.57;14.97;;;9.10;99.90;;;;;;5072424;28;20185;-63
2020/12/15 09:39:49;;;;;;;19.93;14.53;;;9.10;99.90;;;;;;5072307;28;20231;-66
2020/12/15 09:42:19;;;;;;;21.30;15.27;;;9.10;99.90;;;;;;5072236;28;20261;-64
2020/12/15 09:44:44;;;;;;;21.73;14.60;;;9.20;99.90;;;;;;5052608;28;20198;-63
2020/12/15 09:47:10;;;;;;;18.37;14.17;;;9.20;99.90;;;;;;5052647;28;20171;-63
2020/12/15 09:49:37;;;;;;;22.60;14.47;;;9.20;99.90;;;;;;5070924;28;20547;-64
2020/12/15 09:52:03;;;;;;;23.17;15.27;;;9.20;99.90;;;;;;5072151;28;20304;-62
2020/12/15 09:54:29;;;;;;;20.27;14.70;;;9.20;99.90;;;;;;5071655;28;20294;-63
2020/12/15 09:56:54;;;;;;;21.97;14.63;;;9.30;99.90;;;;;;5072272;28;20176;-63
2020/12/15 09:59:20;;;;;;;19.87;13.93;;;9.30;99.90;;;;;;5071913;28;20218;-63
2020/12/15 10:01:45;;;;;;;20.77;14.60;;;9.30;99.90;;;;;;5071717;28;20667;-64
2020/12/15 10:04:11;;;;;;;20.80;14.67;;;9.40;99.90;;;;;;5072047;28;20258;-60
2020/12/15 10:06:38;;;;;;;18.87;14.17;;;9.40;99.90;;;;;;5070247;28;20172;-62
2020/12/15 10:09:04;;;;;;;22.17;14.40;;;9.40;99.90;;;;;;5072150;28;20166;-63
2020/12/15 10:11:30;;;;;;;18.17;14.20;;;9.40;99.90;;;;;;5071247;28;20315;-64
2020/12/15 10:13:56;;;;;;;22.50;14.97;;;9.40;99.90;;;;;;5071778;28;20285;-64
2020/12/15 10:16:22;;;;;;;20.30;14.17;;;9.40;99.90;;;;;;5071636;28;20707;-63
2020/12/15 10:18:48;;;;;;;20.77;13.17;;;9.40;99.90;;;;;;5071630;28;20186;-63
2020/12/15 10:21:18;;;;;;;27.07;14.93;;;9.40;99.90;;;;;;5071144;28;20323;-63
2020/12/15 10:23:44;;;;;;;32.80;15.13;;;9.40;99.90;;;;;;5071757;28;20545;-63
2020/12/15 10:26:10;;;;;;;32.47;16.07;;;9.40;99.90;;;;;;5071390;28;20170;-64
2020/12/15 10:28:36;;;;;;;31.77;15.33;;;9.50;99.90;;;;;;5071558;28;20181;-63
2020/12/15 10:31:02;;;;;;;25.53;15.30;;;9.60;99.90;;;;;;5071078;28;20174;-63
2020/12/15 10:33:29;;;;;;;24.03;15.33;;;9.60;99.90;;;;;;5071440;28;20256;-63
2020/12/15 10:35:55;;;;;;;20.67;12.90;;;9.60;99.90;;;;;;5071764;28;20170;-63
2020/12/15 10:38:21;;;;;;;21.27;13.87;;;9.50;99.90;;;;;;5071326;28;20174;-62
2020/12/15 10:40:47;;;;;;;21.70;13.67;;;9.50;99.90;;;;;;5071124;28;20271;-63
2020/12/15 10:43:13;;;;;;;19.87;13.00;;;9.50;99.90;;;;;;5071165;28;20190;-64
2020/12/15 10:45:39;;;;;;;20.40;12.90;;;9.50;99.90;;;;;;5071528;28;20178;-62
2020/12/15 10:48:04;;;;;;;19.40;13.37;;;9.50;99.90;;;;;;5071159;28;20706;-65
2020/12/15 10:50:30;;;;;;;20.73;13.57;;;9.50;99.90;;;;;;5070802;28;20182;-63
2020/12/15 10:52:56;;;;;;;20.70;14.80;;;9.50;99.90;;;;;;5071532;28;20216;-64
2020/12/15 10:55:22;;;;;;;19.30;14.30;;;9.50;99.90;;;;;;5069527;28;20169;-63
2020/12/15 10:57:48;;;;;;;20.23;14.57;;;9.50;99.90;;;;;;5071448;28;20582;-61
2020/12/15 11:00:14;;;;;;;19.43;13.73;;;9.50;99.90;;;;;;5070505;28;20438;-64
2020/12/15 11:02:39;;;;;;;17.67;12.73;;;9.60;99.90;;;;;;5071241;28;20219;-62
2020/12/15 11:05:05;;;;;;;21.03;14.07;;;9.60;99.90;;;;;;5087743;22;20226;-65
2020/12/15 11:07:30;;;;;;;20.37;14.43;;;9.60;99.90;;;;;;5071433;28;20175;-65
2020/12/15 11:09:56;;;;;;;23.37;14.50;;;9.60;99.90;;;;;;5061613;28;20174;-64
2020/12/15 11:12:22;;;;;;;22.63;13.67;;;9.60;99.90;;;;;;5054111;28;20189;-65
2020/12/15 11:14:47;;;;;;;20.30;13.47;;;9.50;99.90;;;;;;5070957;28;20529;-65
2020/12/15 11:17:13;;;;;;;23.07;13.30;;;9.60;99.90;;;;;;5069505;28;20202;-65
2020/12/15 11:19:39;;;;;;;20.80;14.23;;;9.60;99.90;;;;;;5070833;28;20170;-65
2020/12/15 11:22:04;;;;;;;20.97;14.77;;;9.60;99.90;;;;;;5053027;28;20706;-65
2020/12/15 11:24:30;;;;;;;21.43;14.07;;;9.60;99.90;;;;;;5070912;28;20220;-65
2020/12/15 11:26:56;;;;;;;18.90;13.73;;;9.60;99.90;;;;;;5052637;28;20178;-65
2020/12/15 11:29:21;;;;;;;22.53;14.17;;;9.50;99.90;;;;;;5050947;28;20563;-64
2020/12/15 11:31:51;;;;;;;20.17;13.43;;;9.50;99.90;;;;;;5056600;28;20191;-65
2020/12/15 11:34:17;;;;;;;22.77;13.83;;;9.60;99.90;;;;;;5051092;28;20271;-65
2020/12/15 11:36:43;;;;;;;20.50;13.67;;;9.70;99.90;;;;;;5051663;28;20623;-65
2020/12/15 11:39:09;;;;;;;20.83;13.03;;;9.70;99.90;;;;;;5051300;28;20293;-65
2020/12/15 11:41:35;;;;;;;18.87;13.90;;;9.70;99.90;;;;;;5066248;28;20706;-65
2020/12/15 11:44:00;;;;;;;20.53;13.57;;;9.70;99.90;;;;;;5066368;28;20286;-65
2020/12/15 11:46:26;;;;;;;20.53;13.73;;;9.80;99.90;;;;;;5050793;28;20750;-65
2020/12/15 11:48:51;;;;;;;19.07;13.07;;;9.80;99.90;;;;;;5058086;28;21714;-65
2020/12/15 11:51:21;;;;;;;18.00;13.70;;;9.70;99.90;;;;;;5058003;28;20217;-65
2020/12/15 11:53:50;;;;;;;23.60;14.27;;;9.70;99.90;;;;;;5057305;28;20205;-65
2020/12/15 11:56:17;;;;;;;22.47;13.97;;;9.70;99.90;;;;;;5057715;28;20183;-65
2020/12/15 11:58:42;;;;;;;19.23;13.07;;;9.70;99.90;;;;;;5057014;28;20262;-65
2020/12/15 12:01:08;;;;;;;19.57;13.17;;;9.60;99.90;;;;;;5072661;28;20284;-65
2020/12/15 12:03:34;;;;;;;19.77;13.00;;;9.60;99.90;;;;;;5061363;28;20573;-65
2020/12/15 12:06:00;;;;;;;20.20;14.07;;;9.60;99.90;;;;;;5054638;28;20182;-64
2020/12/15 12:08:26;;;;;;;23.10;14.73;;;9.60;99.90;;;;;;5055360;28;20175;-65
2020/12/15 12:10:52;;;;;;;20.90;14.70;;;9.50;99.90;;;;;;5055174;28;20179;-65
2020/12/15 12:13:18;;;;;;;20.40;14.43;;;9.50;99.90;;;;;;5054492;28;20636;-64
2020/12/15 12:15:43;;;;;;;23.27;15.43;;;9.60;99.90;;;;;;5069625;28;20210;-64
2020/12/15 12:18:09;;;;;;;25.20;15.67;;;9.50;99.90;;;;;;5072496;28;20171;-65
2020/12/15 12:20:35;;;;;;;25.17;14.77;;;9.50;99.90;;;;;;5061276;28;20285;-65
2020/12/15 12:23:02;;;;;;;23.13;15.17;;;9.50;99.90;;;;;;5073757;28;20174;-65
2020/12/15 12:25:28;;;;;;;22.17;14.97;;;9.50;99.90;;;;;;5053806;28;20648;-65
2020/12/15 12:27:54;;;;;;;21.07;14.83;;;9.50;99.90;;;;;;5060794;28;20227;-64
2020/12/15 12:30:20;;;;;;;22.93;14.57;;;9.50;99.90;;;;;;5072865;28;20178;-65
2020/12/15 12:32:45;;;;;;;20.37;14.23;;;9.50;99.90;;;;;;5053916;28;20528;-65
2020/12/15 12:35:12;;;;;;;22.70;13.83;;;9.50;99.90;;;;;;5053970;28;20223;-65
2020/12/15 12:37:38;;;;;;;19.37;14.73;;;9.50;99.90;;;;;;5072447;28;20174;-65
2020/12/15 12:40:05;;;;;;;21.83;14.23;;;9.50;99.90;;;;;;5057823;28;20679;-65
2020/12/15 12:42:30;;;;;;;21.03;13.97;;;9.50;99.90;;;;;;5064459;28;20178;-65
2020/12/15 12:44:56;;;;;;;26.23;14.97;;;9.50;99.90;;;;;;5065547;28;20193;-65
2020/12/15 12:47:22;;;;;;;23.00;15.60;;;9.50;99.90;;;;;;5064257;28;20213;-65
2020/12/15 12:49:47;;;;;;;24.10;14.50;;;9.50;99.90;;;;;;5070195;28;20182;-65